Time;durP1;ratioP1;P1;durP2;ratioP2;P2;SDS_P1;SDS_P2;PMS_P1;PMS_P2;Temp;Humidity;BMP_temperature;BMP_pressure;BME280_temperature;BME280_humidity;BME280_pressure;Samples;Min_cycle;Max_cycle;Signal;HPM_P1;HPM_P2
2022/10/16 00:01:35;;;;;;;0.00;0.00;;;15.00;99.90;;;;;;5015173;28;20985;-77
2022/10/16 00:04:04;;;;;;;0.00;0.00;;;15.00;99.90;;;;;;5015224;28;20926;-76
2022/10/16 00:06:33;;;;;;;0.00;0.00;;;15.00;99.90;;;;;;5014948;28;20943;-76
2022/10/16 00:09:01;;;;;;;0.00;0.00;;;15.10;99.90;;;;;;5015178;28;20449;-76
2022/10/16 00:11:33;;;;;;;0.00;0.00;;;15.10;99.90;;;;;;5015109;28;20470;-76
2022/10/16 00:14:02;;;;;;;0.00;0.00;;;15.10;99.90;;;;;;5015057;28;20449;-76
2022/10/16 00:16:31;;;;;;;0.00;0.00;;;15.10;99.90;;;;;;5014721;28;20485;-76
2022/10/16 00:18:59;;;;;;;0.00;0.00;;;15.00;99.90;;;;;;5014620;28;20953;-76
2022/10/16 00:21:29;;;;;;;0.00;0.00;;;15.00;99.90;;;;;;5014979;28;21049;-76
2022/10/16 00:24:00;;;;;;;0.00;0.00;;;15.00;99.90;;;;;;5014917;28;20442;-76
2022/10/16 00:26:29;;;;;;;0.00;0.00;;;15.10;99.90;;;;;;5014877;28;20557;-76
2022/10/16 00:28:57;;;;;;;0.00;0.00;;;15.00;99.90;;;;;;5014098;28;20441;-76
2022/10/16 00:31:25;;;;;;;0.00;0.00;;;15.00;99.90;;;;;;5014590;28;20985;-76
2022/10/16 00:33:53;;;;;;;0.00;0.00;;;15.00;99.90;;;;;;5014858;28;20450;-77
2022/10/16 00:36:22;;;;;;;0.00;0.00;;;15.00;99.90;;;;;;5015575;28;20473;-76
2022/10/16 00:38:52;;;;;;;0.00;0.00;;;15.00;99.90;;;;;;5015165;28;20434;-76
2022/10/16 00:41:23;;;;;;;0.00;0.00;;;15.00;99.90;;;;;;5014657;28;20520;-76
2022/10/16 00:43:53;;;;;;;0.00;0.00;;;15.00;99.90;;;;;;5014869;28;20430;-76
2022/10/16 00:46:23;;;;;;;0.00;0.00;;;15.00;99.90;;;;;;5014738;28;20531;-76
2022/10/16 00:48:55;;;;;;;0.00;0.00;;;15.10;99.90;;;;;;5014644;28;21020;-76
2022/10/16 00:51:28;;;;;;;0.00;0.00;;;15.10;99.90;;;;;;5014468;28;20509;-77
2022/10/16 00:53:57;;;;;;;0.00;0.00;;;15.20;99.90;;;;;;5014442;28;20446;-76
2022/10/16 00:56:26;;;;;;;0.00;0.00;;;15.20;99.90;;;;;;5015611;28;20531;-76
2022/10/16 00:58:53;;;;;;;0.00;0.00;;;15.20;99.90;;;;;;5016120;28;20441;-76
2022/10/16 01:01:21;;;;;;;0.00;0.00;;;15.20;99.90;;;;;;5014219;28;20973;-76
2022/10/16 01:03:49;;;;;;;0.00;0.00;;;15.30;99.90;;;;;;5014268;28;21023;-76
2022/10/16 01:06:24;;;;;;;0.00;0.00;;;15.20;99.90;;;;;;5013816;28;20446;-76
2022/10/16 01:09:13;;;;;;;0.00;0.00;;;15.20;99.90;;;;;;5014156;28;20830;-76
2022/10/16 01:11:52;;;;;;;0.00;0.00;;;15.20;99.90;;;;;;5014402;28;20811;-76
2022/10/16 01:14:27;;;;;;;0.00;0.00;;;15.10;99.90;;;;;;5014228;28;20446;-76
2022/10/16 01:17:00;;;;;;;0.00;0.00;;;15.10;99.90;;;;;;5013709;28;20480;-76
2022/10/16 01:19:58;;;;;;;0.00;0.00;;;15.10;99.90;;;;;;5014002;28;20521;-76
2022/10/16 01:22:30;;;;;;;0.00;0.00;;;15.20;99.90;;;;;;5014168;28;20489;-76
2022/10/16 01:25:06;;;;;;;0.00;0.00;;;15.20;99.90;;;;;;5013731;28;20450;-76
2022/10/16 01:27:40;;;;;;;0.00;0.00;;;15.20;99.90;;;;;;5013445;28;20445;-76
2022/10/16 01:30:13;;;;;;;0.00;0.00;;;15.20;99.90;;;;;;5013963;28;20457;-76
2022/10/16 01:32:45;;;;;;;0.00;0.00;;;15.20;99.90;;;;;;5013879;28;20522;-76
2022/10/16 01:35:18;;;;;;;0.00;0.00;;;15.10;99.90;;;;;;5013901;28;20488;-77
2022/10/16 01:37:50;;;;;;;0.00;0.00;;;15.00;99.90;;;;;;5013406;28;20474;-77
2022/10/16 01:40:20;;;;;;;0.00;0.00;;;14.90;99.90;;;;;;5013663;28;20547;-76
2022/10/16 01:42:54;;;;;;;0.00;0.00;;;14.90;99.90;;;;;;5013364;28;20940;-76
2022/10/16 01:45:22;;;;;;;0.00;0.00;;;14.80;99.90;;;;;;5013573;28;20506;-76
2022/10/16 01:47:52;;;;;;;0.00;0.00;;;14.70;99.90;;;;;;5013251;28;20950;-76
2022/10/16 01:50:21;;;;;;;0.00;0.00;;;14.70;99.90;;;;;;5013195;28;21000;-75
2022/10/16 01:52:53;;;;;;;0.00;0.00;;;14.70;99.90;;;;;;5013767;28;20475;-76
2022/10/16 01:55:25;;;;;;;0.00;0.00;;;14.60;99.90;;;;;;5013716;28;20427;-76
2022/10/16 01:57:55;;;;;;;0.00;0.00;;;14.60;99.90;;;;;;5013181;28;20547;-76
2022/10/16 02:00:24;;;;;;;0.00;0.00;;;14.60;99.90;;;;;;5013101;28;20989;-76
2022/10/16 02:02:54;;;;;;;0.00;0.00;;;14.60;99.90;;;;;;5013524;28;20504;-76
2022/10/16 02:05:27;;;;;;;0.00;0.00;;;14.60;99.90;;;;;;5013071;28;20453;-75
2022/10/16 02:07:55;;;;;;;0.00;0.00;;;14.60;99.90;;;;;;5013076;28;20430;-76
2022/10/16 02:10:30;;;;;;;0.00;0.00;;;14.60;99.90;;;;;;5013224;28;20890;-76
2022/10/16 02:13:04;;;;;;;0.00;0.00;;;14.60;99.90;;;;;;5013002;28;20442;-76
2022/10/16 02:18:38;;;;;;;0.00;0.00;;;14.60;99.90;;;;;;5873447;22;20549;-75
2022/10/16 02:21:15;;;;;;;0.00;0.00;;;14.50;99.90;;;;;;5037849;28;20468;-75
2022/10/16 02:23:51;;;;;;;0.00;0.00;;;14.50;99.90;;;;;;5032796;28;20973;-75
2022/10/16 02:26:28;;;;;;;0.00;0.00;;;14.50;99.90;;;;;;5032688;28;20436;-75
2022/10/16 02:29:01;;;;;;;0.00;0.00;;;14.50;99.90;;;;;;5032792;28;20943;-75
2022/10/16 02:31:34;;;;;;;0.00;0.00;;;14.50;99.90;;;;;;5032816;28;20462;-75
2022/10/16 02:34:05;;;;;;;0.00;0.00;;;14.40;99.90;;;;;;5033143;28;20429;-76
2022/10/16 02:36:36;;;;;;;0.00;0.00;;;14.40;99.90;;;;;;5032743;28;20441;-75
2022/10/16 02:39:05;;;;;;;0.00;0.00;;;14.40;99.90;;;;;;5032421;28;20468;-76
2022/10/16 02:41:33;;;;;;;0.00;0.00;;;14.30;99.90;;;;;;5032827;28;20985;-75
2022/10/16 02:44:02;;;;;;;0.00;0.00;;;14.30;99.90;;;;;;5032568;28;20507;-75
2022/10/16 02:46:30;;;;;;;0.00;0.00;;;14.30;99.90;;;;;;5032895;28;20441;-75
2022/10/16 02:48:57;;;;;;;0.00;0.00;;;14.20;99.90;;;;;;5032475;28;20437;-75
2022/10/16 02:51:25;;;;;;;0.00;0.00;;;14.20;99.90;;;;;;5033368;28;20460;-76
2022/10/16 02:53:53;;;;;;;0.00;0.00;;;14.20;99.90;;;;;;5036486;28;20449;-75
2022/10/16 02:56:21;;;;;;;0.00;0.00;;;14.20;99.90;;;;;;5036046;28;20511;-75
2022/10/16 02:58:48;;;;;;;0.00;0.00;;;14.20;99.90;;;;;;5036179;28;20550;-75
2022/10/16 03:01:17;;;;;;;0.00;0.00;;;14.20;99.90;;;;;;5036350;28;20472;-75
2022/10/16 03:03:45;;;;;;;0.00;0.00;;;14.10;99.90;;;;;;5036160;28;20883;-75
2022/10/16 03:06:13;;;;;;;0.00;0.00;;;14.00;99.90;;;;;;5035844;28;20444;-75
2022/10/16 03:08:40;;;;;;;0.00;0.00;;;14.00;99.90;;;;;;5036058;28;20444;-75
2022/10/16 03:11:08;;;;;;;0.00;0.00;;;14.00;99.90;;;;;;5035857;28;20530;-75
2022/10/16 03:13:36;;;;;;;0.00;0.00;;;13.90;99.90;;;;;;5036141;28;20491;-76
2022/10/16 03:16:05;;;;;;;0.00;0.00;;;13.80;99.90;;;;;;5035779;28;20949;-75
2022/10/16 03:18:34;;;;;;;0.00;0.00;;;13.80;99.90;;;;;;5035675;28;20526;-75
2022/10/16 03:21:01;;;;;;;0.00;0.00;;;13.80;99.90;;;;;;5035347;28;21058;-75
2022/10/16 03:23:29;;;;;;;0.00;0.00;;;13.80;99.90;;;;;;5035594;28;20476;-75
2022/10/16 03:25:57;;;;;;;0.00;0.00;;;13.80;99.90;;;;;;5036139;28;20488;-75
2022/10/16 03:28:25;;;;;;;0.00;0.00;;;13.70;99.90;;;;;;5035481;28;20846;-75
2022/10/16 03:30:52;;;;;;;0.00;0.00;;;13.70;99.90;;;;;;5035595;28;20469;-75
2022/10/16 03:33:20;;;;;;;0.00;0.00;;;13.70;99.90;;;;;;5035817;28;20579;-75
2022/10/16 03:35:53;;;;;;;0.00;0.00;;;13.60;99.90;;;;;;5035485;28;20445;-75
2022/10/16 03:38:22;;;;;;;0.00;0.00;;;13.60;99.90;;;;;;5035551;28;20481;-75
2022/10/16 03:40:49;;;;;;;0.00;0.00;;;13.50;99.90;;;;;;5035493;28;20469;-75
2022/10/16 03:43:17;;;;;;;0.00;0.00;;;13.40;99.90;;;;;;5035402;28;20437;-76
2022/10/16 03:45:45;;;;;;;0.00;0.00;;;13.40;99.90;;;;;;5035413;28;20433;-75
2022/10/16 03:48:13;;;;;;;0.00;0.00;;;13.40;99.90;;;;;;5035245;28;20921;-75
2022/10/16 03:50:40;;;;;;;0.00;0.00;;;13.40;99.90;;;;;;5035033;28;20469;-75
2022/10/16 03:53:09;;;;;;;0.00;0.00;;;13.40;99.90;;;;;;5035493;28;20496;-75
2022/10/16 03:55:37;;;;;;;0.00;0.00;;;13.50;99.90;;;;;;5035060;28;20944;-75
2022/10/16 03:58:05;;;;;;;0.00;0.00;;;13.50;99.90;;;;;;5034753;28;20972;-75
2022/10/16 04:00:34;;;;;;;0.00;0.00;;;13.50;99.90;;;;;;5035136;28;20461;-75
2022/10/16 04:03:01;;;;;;;0.00;0.00;;;13.50;99.90;;;;;;5034276;28;20441;-75
2022/10/16 04:05:29;;;;;;;0.00;0.00;;;13.50;99.90;;;;;;5034570;28;20499;-75
2022/10/16 04:07:57;;;;;;;0.00;0.00;;;13.50;99.90;;;;;;5034781;28;20441;-75
2022/10/16 04:10:26;;;;;;;0.00;0.00;;;13.50;99.90;;;;;;5034663;28;20860;-75
2022/10/16 04:12:55;;;;;;;0.00;0.00;;;13.50;99.90;;;;;;5034915;28;20489;-75
2022/10/16 04:15:23;;;;;;;0.00;0.00;;;13.50;99.90;;;;;;5034754;28;20559;-75
2022/10/16 04:17:52;;;;;;;0.00;0.00;;;13.40;99.90;;;;;;5034887;28;20444;-75
2022/10/16 04:20:20;;;;;;;0.00;0.00;;;13.40;99.90;;;;;;5034320;28;20481;-75
2022/10/16 04:22:47;;;;;;;0.00;0.00;;;13.40;99.90;;;;;;5034673;28;21004;-75
2022/10/16 04:25:15;;;;;;;0.00;0.00;;;13.40;99.90;;;;;;5034687;28;20445;-76
2022/10/16 04:27:44;;;;;;;0.00;0.00;;;13.50;99.90;;;;;;5034372;28;20444;-75
2022/10/16 04:30:13;;;;;;;0.00;0.00;;;13.40;99.90;;;;;;5034325;28;20468;-75
2022/10/16 04:32:41;;;;;;;0.00;0.00;;;13.50;99.90;;;;;;5034290;28;20437;-75
2022/10/16 04:35:09;;;;;;;0.00;0.00;;;13.50;99.90;;;;;;5034220;28;20955;-75
2022/10/16 04:37:37;;;;;;;0.00;0.00;;;13.50;99.90;;;;;;5034216;28;20505;-75
2022/10/16 04:40:06;;;;;;;0.00;0.00;;;13.50;99.90;;;;;;5034038;28;20530;-75
2022/10/16 04:42:34;;;;;;;0.00;0.00;;;13.50;99.90;;;;;;5034165;28;20441;-75
2022/10/16 04:45:03;;;;;;;0.00;0.00;;;13.50;99.90;;;;;;5034673;28;20850;-75
2022/10/16 04:47:31;;;;;;;0.00;0.00;;;13.50;99.90;;;;;;5034128;28;20437;-75
2022/10/16 04:50:00;;;;;;;0.00;0.00;;;13.50;99.90;;;;;;5034189;28;20457;-75
2022/10/16 04:52:28;;;;;;;0.00;0.00;;;13.50;99.90;;;;;;5034113;28;20469;-75
2022/10/16 04:55:00;;;;;;;0.00;0.00;;;13.50;99.90;;;;;;5034128;28;20451;-75
2022/10/16 04:57:28;;;;;;;0.00;0.00;;;13.50;99.90;;;;;;5034057;28;20433;-75
2022/10/16 04:59:56;;;;;;;0.00;0.00;;;13.50;99.90;;;;;;5034287;28;20539;-75
2022/10/16 05:02:25;;;;;;;0.00;0.00;;;13.60;99.90;;;;;;5034122;28;20444;-75
2022/10/16 05:04:53;;;;;;;0.00;0.00;;;13.50;99.90;;;;;;5033991;28;20453;-75
2022/10/16 05:07:21;;;;;;;0.00;0.00;;;13.50;99.90;;;;;;5033137;28;20560;-75
2022/10/16 05:09:48;;;;;;;0.00;0.00;;;13.60;99.90;;;;;;5033406;28;20437;-75
2022/10/16 05:12:16;;;;;;;0.00;0.00;;;13.60;99.90;;;;;;5033835;28;20461;-75
2022/10/16 05:14:44;;;;;;;0.00;0.00;;;13.60;99.90;;;;;;5033015;28;20846;-75
2022/10/16 05:17:11;;;;;;;0.00;0.00;;;13.50;99.90;;;;;;5033567;28;20492;-75
2022/10/16 05:19:41;;;;;;;0.00;0.00;;;13.50;99.90;;;;;;5033463;28;20468;-75
2022/10/16 05:22:08;;;;;;;0.00;0.00;;;13.50;99.90;;;;;;5033499;28;20445;-76
2022/10/16 05:24:36;;;;;;;0.00;0.00;;;13.50;99.90;;;;;;5033473;28;20528;-75
2022/10/16 05:27:04;;;;;;;0.00;0.00;;;13.50;99.90;;;;;;5033582;28;20441;-75
2022/10/16 05:29:31;;;;;;;0.00;0.00;;;13.50;99.90;;;;;;5033209;28;20437;-75
2022/10/16 05:31:59;;;;;;;0.00;0.00;;;13.40;99.90;;;;;;5033486;28;20441;-75
2022/10/16 05:34:27;;;;;;;0.00;0.00;;;13.40;99.90;;;;;;5033463;28;20495;-75
2022/10/16 05:36:56;;;;;;;0.00;0.00;;;13.30;99.90;;;;;;5033483;28;20499;-75
2022/10/16 05:39:24;;;;;;;0.00;0.00;;;13.30;99.90;;;;;;5032793;28;20992;-75
2022/10/16 05:41:52;;;;;;;0.00;0.00;;;13.30;99.90;;;;;;5033302;28;20461;-75
2022/10/16 05:44:20;;;;;;;0.00;0.00;;;13.30;99.90;;;;;;5033160;28;20455;-76
2022/10/16 05:46:48;;;;;;;0.00;0.00;;;13.40;99.90;;;;;;5033031;28;20943;-75
2022/10/16 05:49:16;;;;;;;0.00;0.00;;;13.40;99.90;;;;;;5032851;28;20437;-75
2022/10/16 05:51:43;;;;;;;0.00;0.00;;;13.40;99.90;;;;;;5033155;28;20970;-75
2022/10/16 05:54:13;;;;;;;0.00;0.00;;;13.50;99.90;;;;;;5033221;28;20510;-75
2022/10/16 05:56:40;;;;;;;0.00;0.00;;;13.50;99.90;;;;;;5032829;28;20442;-76
2022/10/16 05:59:08;;;;;;;0.00;0.00;;;13.60;99.90;;;;;;5032811;28;20623;-75
2022/10/16 06:01:36;;;;;;;0.00;0.00;;;13.70;99.90;;;;;;5032980;28;20473;-75
2022/10/16 06:04:04;;;;;;;0.00;0.00;;;13.70;99.90;;;;;;5033013;28;21006;-75
2022/10/16 06:06:32;;;;;;;0.00;0.00;;;13.70;99.90;;;;;;5032311;28;20966;-75
2022/10/16 06:08:59;;;;;;;0.00;0.00;;;13.80;99.90;;;;;;5032795;28;20498;-75
2022/10/16 06:11:30;;;;;;;0.00;0.00;;;13.90;99.90;;;;;;5032690;28;21011;-75
2022/10/16 06:14:01;;;;;;;0.00;0.00;;;13.90;99.90;;;;;;5032805;28;20425;-75
2022/10/16 06:16:30;;;;;;;0.00;0.00;;;13.90;99.90;;;;;;5032687;28;20950;-75
2022/10/16 06:18:59;;;;;;;0.00;0.00;;;14.00;99.90;;;;;;5032735;28;20453;-75
2022/10/16 06:21:28;;;;;;;0.00;0.00;;;14.00;99.90;;;;;;5032646;28;20461;-75
2022/10/16 06:23:57;;;;;;;0.00;0.00;;;14.00;99.90;;;;;;5032733;28;20510;-75
2022/10/16 06:26:28;;;;;;;0.00;0.00;;;14.00;99.90;;;;;;5033577;28;20440;-75
2022/10/16 06:28:57;;;;;;;0.00;0.00;;;13.90;99.90;;;;;;5036338;28;20491;-75
2022/10/16 06:31:27;;;;;;;0.00;0.00;;;13.90;99.90;;;;;;5036564;28;20461;-76
2022/10/16 06:33:55;;;;;;;0.00;0.00;;;13.90;99.90;;;;;;5036810;28;20495;-75
2022/10/16 06:36:24;;;;;;;0.00;0.00;;;13.80;99.90;;;;;;5036513;28;20437;-75
2022/10/16 06:38:52;;;;;;;0.00;0.00;;;13.80;99.90;;;;;;5036222;28;20507;-75
2022/10/16 06:41:22;;;;;;;0.00;0.00;;;13.70;99.90;;;;;;5036445;28;20488;-75
2022/10/16 06:43:51;;;;;;;0.00;0.00;;;13.60;99.90;;;;;;5036766;28;20508;-75
2022/10/16 06:46:22;;;;;;;0.00;0.00;;;13.60;99.90;;;;;;5036406;28;21025;-75
2022/10/16 06:48:50;;;;;;;0.00;0.00;;;13.50;99.90;;;;;;5035968;28;20449;-75
2022/10/16 06:51:18;;;;;;;0.00;0.00;;;13.50;99.90;;;;;;5036419;28;20449;-75
2022/10/16 06:53:48;;;;;;;0.00;0.00;;;13.40;99.90;;;;;;5036532;28;20464;-76
2022/10/16 06:56:30;;;;;;;0.00;0.00;;;13.40;99.90;;;;;;5036845;28;20429;-77
2022/10/16 06:59:00;;;;;;;0.00;0.00;;;13.40;99.90;;;;;;5036377;28;20499;-76
2022/10/16 07:01:28;;;;;;;0.00;0.00;;;13.40;99.90;;;;;;5036281;28;20891;-76
2022/10/16 07:03:56;;;;;;;0.00;0.00;;;13.50;99.90;;;;;;5036103;28;20437;-76
2022/10/16 07:06:26;;;;;;;0.00;0.00;;;13.60;99.90;;;;;;5035693;28;20460;-75
2022/10/16 07:08:54;;;;;;;0.00;0.00;;;13.80;99.90;;;;;;5036377;28;20867;-76
2022/10/16 07:11:24;;;;;;;0.00;0.00;;;13.90;99.90;;;;;;5037096;28;20511;-76
2022/10/16 07:13:52;;;;;;;0.00;0.00;;;14.00;99.90;;;;;;5036201;28;20452;-76
2022/10/16 07:16:26;;;;;;;0.00;0.00;;;14.20;99.90;;;;;;5035985;28;20516;-76
2022/10/16 07:18:58;;;;;;;0.00;0.00;;;14.30;99.90;;;;;;5035769;28;20437;-75
2022/10/16 07:21:28;;;;;;;0.00;0.00;;;14.50;99.90;;;;;;5035612;28;21036;-76
2022/10/16 07:23:58;;;;;;;0.00;0.00;;;14.70;99.90;;;;;;5036033;28;20444;-76
2022/10/16 07:26:26;;;;;;;0.00;0.00;;;14.80;99.90;;;;;;5035697;28;20936;-76
2022/10/16 07:28:54;;;;;;;0.00;0.00;;;14.90;99.90;;;;;;5036428;28;20799;-76
2022/10/16 07:31:24;;;;;;;0.00;0.00;;;14.90;99.90;;;;;;5037030;28;20889;-76
2022/10/16 07:33:52;;;;;;;0.00;0.00;;;14.90;99.90;;;;;;5036691;28;20909;-75
2022/10/16 07:36:20;;;;;;;0.00;0.00;;;15.00;99.90;;;;;;5035731;28;20441;-76
2022/10/16 07:38:48;;;;;;;0.00;0.00;;;15.00;99.90;;;;;;5034217;28;20453;-77
2022/10/16 07:41:21;;;;;;;0.00;0.00;;;14.90;99.90;;;;;;5035508;28;20542;-76
2022/10/16 07:43:50;;;;;;;0.00;0.00;;;15.00;99.90;;;;;;5035394;28;20445;-77
2022/10/16 07:46:20;;;;;;;0.00;0.00;;;15.00;99.90;;;;;;5035264;28;20441;-76
2022/10/16 07:48:49;;;;;;;0.00;0.00;;;15.10;99.90;;;;;;5035163;28;20519;-76
2022/10/16 07:51:18;;;;;;;0.00;0.00;;;15.10;99.90;;;;;;5035132;28;20457;-76
2022/10/16 07:53:47;;;;;;;0.00;0.00;;;15.20;99.90;;;;;;5035268;28;20949;-76
2022/10/16 07:56:15;;;;;;;0.00;0.00;;;15.30;99.90;;;;;;5035034;28;20433;-75
2022/10/16 07:58:43;;;;;;;0.00;0.00;;;15.40;99.90;;;;;;5035061;28;20472;-76
2022/10/16 08:01:13;;;;;;;0.00;0.00;;;15.50;99.90;;;;;;5035169;28;20611;-75
2022/10/16 08:03:43;;;;;;;0.00;0.00;;;15.60;99.90;;;;;;5035621;28;20441;-76
2022/10/16 08:06:12;;;;;;;0.00;0.00;;;15.70;99.90;;;;;;5034564;28;20459;-76
2022/10/16 08:08:40;;;;;;;0.00;0.00;;;15.80;99.90;;;;;;5034706;28;20446;-75
2022/10/16 08:11:08;;;;;;;0.00;0.00;;;15.90;99.90;;;;;;5034762;28;20543;-76
2022/10/16 08:13:35;;;;;;;0.00;0.00;;;16.00;99.90;;;;;;5034936;28;20828;-75
2022/10/16 08:16:07;;;;;;;0.00;0.00;;;15.90;99.90;;;;;;5034741;28;20445;-75
2022/10/16 08:18:36;;;;;;;0.00;0.00;;;15.90;99.90;;;;;;5035528;28;20444;-75
2022/10/16 08:21:05;;;;;;;0.00;0.00;;;15.80;99.90;;;;;;5036568;28;20539;-76
2022/10/16 08:23:34;;;;;;;0.00;0.00;;;15.80;99.90;;;;;;5035560;28;20441;-76
2022/10/16 08:26:07;;;;;;;0.00;0.00;;;15.90;99.90;;;;;;5034950;28;20515;-76
2022/10/16 08:28:35;;;;;;;0.00;0.00;;;15.90;99.90;;;;;;5034589;28;20437;-76
2022/10/16 08:31:08;;;;;;;0.00;0.00;;;15.80;99.90;;;;;;5034345;28;20485;-76
2022/10/16 08:33:36;;;;;;;0.00;0.00;;;15.80;99.90;;;;;;5034539;28;20516;-77
2022/10/16 08:36:05;;;;;;;0.00;0.00;;;15.90;99.90;;;;;;5034229;28;20487;-76
2022/10/16 08:38:35;;;;;;;0.00;0.00;;;15.80;99.90;;;;;;5034248;28;20449;-76
2022/10/16 08:41:21;;;;;;;0.00;0.00;;;15.90;99.90;;;;;;5034113;28;20509;-77
2022/10/16 08:44:07;;;;;;;0.00;0.00;;;15.80;99.90;;;;;;5034077;28;20441;-76
2022/10/16 08:46:46;;;;;;;0.00;0.00;;;15.90;99.90;;;;;;5034031;28;20431;-76
2022/10/16 08:49:18;;;;;;;0.00;0.00;;;16.00;99.90;;;;;;5033679;28;20822;-76
2022/10/16 08:51:49;;;;;;;0.00;0.00;;;16.10;99.90;;;;;;5033869;28;20457;-77
2022/10/16 08:54:28;;;;;;;0.00;0.00;;;16.10;99.90;;;;;;5033986;28;20453;-76
2022/10/16 08:56:57;;;;;;;0.00;0.00;;;16.20;99.90;;;;;;5034070;28;20413;-76
2022/10/16 08:59:24;;;;;;;0.00;0.00;;;16.30;99.90;;;;;;5033687;28;20441;-75
2022/10/16 09:01:53;;;;;;;0.00;0.00;;;16.30;99.90;;;;;;5033685;28;20531;-75
2022/10/16 09:04:52;;;;;;;0.00;0.00;;;16.20;99.90;;;;;;5033688;28;20496;-75
2022/10/16 09:07:31;;;;;;;0.00;0.00;;;16.30;99.90;;;;;;5033400;28;20473;-75
2022/10/16 09:10:22;;;;;;;0.00;0.00;;;16.40;99.90;;;;;;5033687;28;20511;-76
2022/10/16 09:12:56;;;;;;;0.00;0.00;;;16.40;99.90;;;;;;5033525;28;20438;-76
2022/10/16 09:15:32;;;;;;;0.00;0.00;;;16.50;99.90;;;;;;5033476;28;20438;-76
2022/10/16 09:18:07;;;;;;;0.00;0.00;;;16.60;99.90;;;;;;5033606;28;20453;-75
2022/10/16 09:20:52;;;;;;;0.00;0.00;;;16.70;99.90;;;;;;5032966;28;21016;-76
2022/10/16 09:23:25;;;;;;;0.00;0.00;;;16.80;99.90;;;;;;5033363;28;20929;-76
2022/10/16 09:25:56;;;;;;;0.00;0.00;;;16.80;99.90;;;;;;5033211;28;20437;-75
2022/10/16 09:28:23;;;;;;;0.00;0.00;;;16.90;99.90;;;;;;5033570;28;20456;-75
2022/10/16 09:30:52;;;;;;;0.00;0.00;;;17.00;99.90;;;;;;5033345;28;20557;-76
2022/10/16 09:33:23;;;;;;;0.00;0.00;;;17.00;99.90;;;;;;5033352;28;20496;-76
2022/10/16 09:35:54;;;;;;;0.00;0.00;;;17.00;99.90;;;;;;5033297;28;20439;-76
2022/10/16 09:38:23;;;;;;;0.00;0.00;;;17.10;99.90;;;;;;5032932;28;20493;-76
2022/10/16 09:40:51;;;;;;;0.00;0.00;;;17.20;99.90;;;;;;5033411;28;20465;-76
2022/10/16 09:43:36;;;;;;;0.00;0.00;;;17.10;99.90;;;;;;5033194;28;20438;-75
2022/10/16 09:46:05;;;;;;;0.00;0.00;;;17.00;99.90;;;;;;5033124;28;20441;-76
2022/10/16 09:48:38;;;;;;;0.00;0.00;;;17.00;99.90;;;;;;5032816;28;20442;-76
2022/10/16 09:51:17;;;;;;;0.00;0.00;;;16.90;99.90;;;;;;5032929;28;20965;-76
2022/10/16 09:53:46;;;;;;;0.00;0.00;;;16.90;99.90;;;;;;5032808;28;20443;-77
2022/10/16 09:56:23;;;;;;;0.00;0.00;;;16.80;99.90;;;;;;5033657;28;20442;-76
2022/10/16 09:58:53;;;;;;;0.00;0.00;;;16.90;99.90;;;;;;5033333;28;20496;-76
2022/10/16 10:01:22;;;;;;;0.00;0.00;;;16.80;99.90;;;;;;5032004;28;20487;-76
2022/10/16 10:03:52;;;;;;;0.00;0.00;;;16.90;99.90;;;;;;5032949;28;20445;-76
2022/10/16 10:06:25;;;;;;;0.00;0.00;;;16.90;99.90;;;;;;5032844;28;20442;-76
2022/10/16 10:09:05;;;;;;;0.00;0.00;;;17.00;99.90;;;;;;5032717;28;20490;-76
2022/10/16 10:11:55;;;;;;;0.00;0.00;;;17.00;99.90;;;;;;5032829;28;20457;-76
2022/10/16 10:14:27;;;;;;;0.00;0.00;;;17.10;99.90;;;;;;5033167;28;20441;-76
2022/10/16 10:17:10;;;;;;;0.00;0.00;;;17.10;99.90;;;;;;5032735;28;20703;-76
2022/10/16 10:19:40;;;;;;;0.00;0.00;;;17.10;99.90;;;;;;5032695;28;20444;-76
2022/10/16 10:22:18;;;;;;;0.00;0.00;;;17.20;99.90;;;;;;5032327;28;21056;-75
2022/10/16 10:24:56;;;;;;;0.00;0.00;;;17.30;99.90;;;;;;5032469;28;21000;-76
2022/10/16 10:27:33;;;;;;;0.00;0.00;;;17.30;99.90;;;;;;5032547;28;20934;-76
2022/10/16 10:30:08;;;;;;;0.00;0.00;;;17.20;99.90;;;;;;5032792;28;20979;-76
2022/10/16 10:32:44;;;;;;;0.00;0.00;;;17.10;99.90;;;;;;5032844;28;20431;-76
2022/10/16 10:35:17;;;;;;;0.00;0.00;;;17.10;99.90;;;;;;5033264;28;20436;-76
2022/10/16 10:38:04;;;;;;;0.00;0.00;;;17.10;99.90;;;;;;5032625;28;20437;-75
2022/10/16 10:40:44;;;;;;;0.00;0.00;;;17.20;99.90;;;;;;5032652;28;20463;-76
2022/10/16 10:43:21;;;;;;;0.00;0.00;;;17.20;99.90;;;;;;5032646;28;20471;-76
2022/10/16 10:45:56;;;;;;;0.00;0.00;;;17.20;99.90;;;;;;5032567;28;20517;-76
2022/10/16 10:48:45;;;;;;;0.00;0.00;;;17.40;99.90;;;;;;5032623;28;20505;-75
2022/10/16 10:51:19;;;;;;;0.00;0.00;;;17.60;99.90;;;;;;5033242;28;20514;-76
2022/10/16 10:53:56;;;;;;;0.00;0.00;;;17.80;99.90;;;;;;5033445;28;20432;-76
2022/10/16 10:56:42;;;;;;;0.00;0.00;;;18.00;99.90;;;;;;5034366;28;20442;-76
2022/10/16 10:59:40;;;;;;;0.00;0.00;;;18.10;99.90;;;;;;5033631;28;20447;-75
2022/10/16 11:02:18;;;;;;;0.00;0.00;;;18.10;99.90;;;;;;5019878;28;20480;-76
2022/10/16 11:05:17;;;;;;;0.00;0.00;;;18.00;99.90;;;;;;5034005;28;20447;-76
2022/10/16 11:07:50;;;;;;;0.00;0.00;;;17.90;99.90;;;;;;5033113;28;20448;-75
2022/10/16 11:10:22;;;;;;;0.00;0.00;;;17.90;99.90;;;;;;5033190;28;20829;-76
2022/10/16 11:12:55;;;;;;;0.00;0.00;;;17.80;99.90;;;;;;5033627;28;20496;-75
2022/10/16 11:15:29;;;;;;;0.00;0.00;;;17.80;99.90;;;;;;5035826;28;20441;-76
2022/10/16 11:18:04;;;;;;;0.00;0.00;;;17.80;99.90;;;;;;5035398;28;20486;-76
2022/10/16 11:20:35;;;;;;;0.00;0.00;;;17.90;99.90;;;;;;5035372;28;20471;-76
2022/10/16 11:23:10;;;;;;;0.00;0.00;;;17.90;99.90;;;;;;5035546;28;20982;-76
2022/10/16 11:25:39;;;;;;;0.00;0.00;;;17.90;99.90;;;;;;5035459;28;20462;-76
2022/10/16 11:28:12;;;;;;;0.00;0.00;;;17.90;99.90;;;;;;5035460;28;20449;-76
2022/10/16 11:30:45;;;;;;;0.00;0.00;;;17.90;99.90;;;;;;5036761;28;20964;-76
2022/10/16 11:33:31;;;;;;;0.00;0.00;;;17.90;99.90;;;;;;5035483;28;20493;-76
2022/10/16 11:36:04;;;;;;;0.00;0.00;;;17.90;99.90;;;;;;5035631;28;20446;-76
2022/10/16 11:38:38;;;;;;;0.00;0.00;;;18.10;99.90;;;;;;5035773;28;20436;-76
2022/10/16 11:41:16;;;;;;;0.00;0.00;;;18.30;99.90;;;;;;5035305;28;20453;-76
2022/10/16 11:43:50;;;;;;;0.00;0.00;;;18.50;99.90;;;;;;5035527;28;20473;-76
2022/10/16 11:46:21;;;;;;;0.00;0.00;;;18.70;99.90;;;;;;5035780;28;20852;-76
2022/10/16 11:48:55;;;;;;;0.00;0.00;;;18.80;99.90;;;;;;5035121;28;20433;-75
2022/10/16 11:51:30;;;;;;;0.00;0.00;;;18.80;99.90;;;;;;5035285;28;20465;-76
2022/10/16 11:54:05;;;;;;;0.00;0.00;;;18.70;99.90;;;;;;5035435;28;21054;-76
2022/10/16 11:56:37;;;;;;;0.00;0.00;;;18.60;99.90;;;;;;5035286;28;20924;-75
2022/10/16 11:59:09;;;;;;;0.00;0.00;;;18.50;99.90;;;;;;5034788;28;20855;-76
2022/10/16 12:01:42;;;;;;;0.00;0.00;;;18.40;99.90;;;;;;5035042;28;20449;-76
2022/10/16 12:04:22;;;;;;;0.00;0.00;;;18.20;99.90;;;;;;5035031;28;20487;-76
2022/10/16 12:06:53;;;;;;;0.00;0.00;;;18.00;99.90;;;;;;5034384;28;20972;-75
2022/10/16 12:09:25;;;;;;;0.00;0.00;;;17.80;99.90;;;;;;5034426;28;21003;-76
2022/10/16 12:11:53;;;;;;;0.00;0.00;;;17.70;99.90;;;;;;5034892;28;20495;-76
2022/10/16 12:14:37;;;;;;;0.00;0.00;;;17.70;99.90;;;;;;5034965;28;20518;-75
2022/10/16 12:17:34;;;;;;;0.00;0.00;;;17.70;99.90;;;;;;5035011;28;20490;-75
2022/10/16 12:20:21;;;;;;;0.00;0.00;;;17.70;99.90;;;;;;5034330;28;20534;-76
2022/10/16 12:22:53;;;;;;;0.00;0.00;;;17.70;99.90;;;;;;5034642;28;20477;-76
2022/10/16 12:25:24;;;;;;;0.00;0.00;;;17.70;99.90;;;;;;5033955;28;20452;-76
2022/10/16 12:28:03;;;;;;;0.00;0.00;;;17.70;99.90;;;;;;5034619;28;20451;-75
2022/10/16 12:30:33;;;;;;;0.00;0.00;;;17.80;99.90;;;;;;5034379;28;20979;-75
2022/10/16 12:33:04;;;;;;;0.00;0.00;;;17.90;99.90;;;;;;5035016;28;20541;-76
2022/10/16 12:35:36;;;;;;;0.00;0.00;;;18.00;99.90;;;;;;5034260;28;20435;-76
2022/10/16 12:38:13;;;;;;;0.00;0.00;;;18.10;99.90;;;;;;5034568;28;20453;-75
2022/10/16 12:40:44;;;;;;;0.00;0.00;;;18.20;99.90;;;;;;5034737;28;20453;-76
2022/10/16 12:43:29;;;;;;;0.00;0.00;;;18.30;99.90;;;;;;5034151;28;20521;-76
2022/10/16 12:46:03;;;;;;;0.00;0.00;;;18.30;99.90;;;;;;5032436;28;20460;-75
2022/10/16 12:48:31;;;;;;;0.00;0.00;;;18.40;99.90;;;;;;5034150;28;20436;-76
2022/10/16 12:51:26;;;;;;;0.00;0.00;;;18.30;99.90;;;;;;5034194;28;20812;-76
2022/10/16 12:54:01;;;;;;;0.00;0.00;;;18.20;99.90;;;;;;5034101;28;20429;-76
2022/10/16 12:56:41;;;;;;;0.00;0.00;;;18.10;99.90;;;;;;5034338;28;20453;-76
2022/10/16 12:59:21;;;;;;;0.00;0.00;;;18.20;99.90;;;;;;5033810;28;20433;-76
2022/10/16 13:02:05;;;;;;;0.00;0.00;;;18.40;99.90;;;;;;5033814;28;20964;-76
2022/10/16 13:04:47;;;;;;;0.00;0.00;;;18.50;99.90;;;;;;5033597;28;20467;-76
2022/10/16 13:07:33;;;;;;;0.00;0.00;;;18.40;99.90;;;;;;5033546;28;20455;-76
2022/10/16 13:10:15;;;;;;;0.00;0.00;;;18.40;99.90;;;;;;5033791;28;20457;-76
2022/10/16 13:13:14;;;;;;;0.00;0.00;;;18.50;99.90;;;;;;5033787;28;20440;-76
2022/10/16 13:15:55;;;;;;;0.00;0.00;;;18.40;99.90;;;;;;5033965;28;20437;-75